sensor_id;sensor_type;location;lat;lon;timestamp;pressure;altitude;pressure_sealevel;temperature;humidity
6506;BME280;3286;49.858;8.768;2024-03-07T00:00:02;99838.72;;;7.86;53.98
6506;BME280;3286;49.858;8.768;2024-03-07T00:02:32;99842.44;;;7.83;54.10
6506;BME280;3286;49.858;8.768;2024-03-07T00:04:59;99847.09;;;7.79;53.92
6506;BME280;3286;49.858;8.768;2024-03-07T00:07:27;99843.34;;;7.71;53.92
6506;BME280;3286;49.858;8.768;2024-03-07T00:09:54;99841.97;;;7.78;53.90
6506;BME280;3286;49.858;8.768;2024-03-07T00:12:21;99838.50;;;7.89;52.64
6506;BME280;3286;49.858;8.768;2024-03-07T00:14:48;99846.28;;;7.43;54.34
6506;BME280;3286;49.858;8.768;2024-03-07T00:17:15;99843.72;;;7.30;53.90
6506;BME280;3286;49.858;8.768;2024-03-07T00:19:41;99851.78;;;7.16;55.06
6506;BME280;3286;49.858;8.768;2024-03-07T00:22:09;99839.00;;;7.47;53.77
6506;BME280;3286;49.858;8.768;2024-03-07T00:24:36;99839.50;;;7.52;53.46
6506;BME280;3286;49.858;8.768;2024-03-07T00:27:04;99854.00;;;6.85;55.08
6506;BME280;3286;49.858;8.768;2024-03-07T00:29:30;99846.53;;;7.51;53.16
6506;BME280;3286;49.858;8.768;2024-03-07T00:32:00;99857.97;;;7.39;53.33
6506;BME280;3286;49.858;8.768;2024-03-07T00:34:28;99856.28;;;7.38;54.18
6506;BME280;3286;49.858;8.768;2024-03-07T00:36:54;99854.09;;;7.20;53.72
6506;BME280;3286;49.858;8.768;2024-03-07T00:39:23;99848.88;;;7.32;53.65
6506;BME280;3286;49.858;8.768;2024-03-07T00:41:51;99848.44;;;7.14;54.29
6506;BME280;3286;49.858;8.768;2024-03-07T00:44:18;99855.41;;;7.26;54.02
6506;BME280;3286;49.858;8.768;2024-03-07T00:46:44;99853.72;;;7.25;53.75
6506;BME280;3286;49.858;8.768;2024-03-07T00:49:11;99854.22;;;7.30;53.74
6506;BME280;3286;49.858;8.768;2024-03-07T00:51:37;99855.09;;;7.06;54.11
6506;BME280;3286;49.858;8.768;2024-03-07T00:54:05;99850.19;;;6.89;54.26
6506;BME280;3286;49.858;8.768;2024-03-07T00:56:32;99852.19;;;6.61;54.87
6506;BME280;3286;49.858;8.768;2024-03-07T00:59:00;99847.63;;;6.76;54.36
6506;BME280;3286;49.858;8.768;2024-03-07T01:01:27;99846.25;;;7.07;53.62
6506;BME280;3286;49.858;8.768;2024-03-07T01:03:53;99850.81;;;6.92;53.97
6506;BME280;3286;49.858;8.768;2024-03-07T01:06:20;99850.28;;;7.00;54.21
6506;BME280;3286;49.858;8.768;2024-03-07T01:08:46;99856.25;;;7.02;53.97
6506;BME280;3286;49.858;8.768;2024-03-07T01:11:13;99855.75;;;6.97;53.99
6506;BME280;3286;49.858;8.768;2024-03-07T01:13:40;99847.03;;;6.96;53.77
6506;BME280;3286;49.858;8.768;2024-03-07T01:16:08;99849.78;;;6.95;53.93
6506;BME280;3286;49.858;8.768;2024-03-07T01:18:35;99848.28;;;6.91;53.94
6506;BME280;3286;49.858;8.768;2024-03-07T01:21:04;99850.72;;;6.94;53.63
6506;BME280;3286;49.858;8.768;2024-03-07T01:23:31;99848.28;;;6.91;53.61
6506;BME280;3286;49.858;8.768;2024-03-07T01:25:58;99845.28;;;6.84;53.84
6506;BME280;3286;49.858;8.768;2024-03-07T01:28:26;99850.03;;;6.79;53.80
6506;BME280;3286;49.858;8.768;2024-03-07T01:30:55;99849.00;;;6.69;54.34
6506;BME280;3286;49.858;8.768;2024-03-07T01:33:24;99841.03;;;6.70;53.72
6506;BME280;3286;49.858;8.768;2024-03-07T01:35:50;99847.88;;;6.97;53.08
6506;BME280;3286;49.858;8.768;2024-03-07T01:38:17;99844.56;;;6.82;53.39
6506;BME280;3286;49.858;8.768;2024-03-07T01:40:44;99840.22;;;6.57;54.03
6506;BME280;3286;49.858;8.768;2024-03-07T01:43:13;99843.03;;;6.66;54.12
6506;BME280;3286;49.858;8.768;2024-03-07T01:45:40;99842.75;;;6.45;54.32
6506;BME280;3286;49.858;8.768;2024-03-07T01:48:09;99834.13;;;6.56;53.89
6506;BME280;3286;49.858;8.768;2024-03-07T01:50:37;99833.63;;;6.51;53.95
6506;BME280;3286;49.858;8.768;2024-03-07T01:53:04;99833.31;;;6.43;54.15
6506;BME280;3286;49.858;8.768;2024-03-07T01:55:31;99837.41;;;6.47;53.77
6506;BME280;3286;49.858;8.768;2024-03-07T01:57:59;99831.03;;;6.25;54.31
6506;BME280;3286;49.858;8.768;2024-03-07T02:00:26;99824.63;;;6.29;54.47
6506;BME280;3286;49.858;8.768;2024-03-07T02:02:53;99824.75;;;6.15;54.71
6506;BME280;3286;49.858;8.768;2024-03-07T02:05:20;99823.34;;;6.35;54.41
6506;BME280;3286;49.858;8.768;2024-03-07T02:07:48;99821.91;;;6.31;54.38
6506;BME280;3286;49.858;8.768;2024-03-07T02:10:15;99816.38;;;6.09;54.89
6506;BME280;3286;49.858;8.768;2024-03-07T02:12:43;99815.41;;;6.23;54.02
6506;BME280;3286;49.858;8.768;2024-03-07T02:15:10;99829.13;;;6.27;54.75
6506;BME280;3286;49.858;8.768;2024-03-07T02:17:39;99819.50;;;6.28;54.73
6506;BME280;3286;49.858;8.768;2024-03-07T02:20:09;99817.81;;;6.27;54.13
6506;BME280;3286;49.858;8.768;2024-03-07T02:22:37;99825.81;;;6.12;54.05
6506;BME280;3286;49.858;8.768;2024-03-07T02:25:04;99826.59;;;6.00;53.87
6506;BME280;3286;49.858;8.768;2024-03-07T02:27:31;99815.81;;;5.91;54.59
6506;BME280;3286;49.858;8.768;2024-03-07T02:29:58;99814.22;;;5.89;54.27
6506;BME280;3286;49.858;8.768;2024-03-07T02:32:29;99812.59;;;6.01;54.08
6506;BME280;3286;49.858;8.768;2024-03-07T02:34:56;99804.38;;;5.92;54.71
6506;BME280;3286;49.858;8.768;2024-03-07T02:37:22;99811.94;;;5.84;54.81
6506;BME280;3286;49.858;8.768;2024-03-07T02:39:50;99808.59;;;5.82;55.55
6506;BME280;3286;49.858;8.768;2024-03-07T02:42:17;99804.81;;;5.86;55.37
6506;BME280;3286;49.858;8.768;2024-03-07T02:44:43;99806.16;;;5.66;56.61
6506;BME280;3286;49.858;8.768;2024-03-07T02:47:10;99808.56;;;5.69;54.55
6506;BME280;3286;49.858;8.768;2024-03-07T02:49:37;99805.22;;;5.93;54.09
6506;BME280;3286;49.858;8.768;2024-03-07T02:52:04;99806.06;;;5.93;53.33
6506;BME280;3286;49.858;8.768;2024-03-07T02:54:32;99797.09;;;5.44;56.33
6506;BME280;3286;49.858;8.768;2024-03-07T02:57:01;99795.88;;;5.63;54.53
6506;BME280;3286;49.858;8.768;2024-03-07T02:59:28;99796.72;;;5.76;54.15
6506;BME280;3286;49.858;8.768;2024-03-07T03:01:54;99796.41;;;5.81;53.72
6506;BME280;3286;49.858;8.768;2024-03-07T03:04:22;99792.81;;;5.56;54.73
6506;BME280;3286;49.858;8.768;2024-03-07T03:06:48;99783.78;;;5.47;55.68
6506;BME280;3286;49.858;8.768;2024-03-07T03:09:16;99796.09;;;5.60;54.43
6506;BME280;3286;49.858;8.768;2024-03-07T03:11:43;99800.94;;;5.79;54.94
6506;BME280;3286;49.858;8.768;2024-03-07T03:14:11;99786.56;;;5.72;56.03
6506;BME280;3286;49.858;8.768;2024-03-07T03:16:41;99786.22;;;5.63;56.04
6506;BME280;3286;49.858;8.768;2024-03-07T03:19:08;99794.63;;;5.56;56.08
6506;BME280;3286;49.858;8.768;2024-03-07T03:21:35;99795.66;;;5.53;56.11
6506;BME280;3286;49.858;8.768;2024-03-07T03:24:02;99789.78;;;5.49;55.88
6506;BME280;3286;49.858;8.768;2024-03-07T03:26:28;99794.75;;;5.80;53.62
6506;BME280;3286;49.858;8.768;2024-03-07T03:28:56;99797.38;;;5.93;53.37
6506;BME280;3286;49.858;8.768;2024-03-07T03:31:24;99789.59;;;5.53;53.40
6506;BME280;3286;49.858;8.768;2024-03-07T03:33:51;99792.81;;;5.30;53.49
6506;BME280;3286;49.858;8.768;2024-03-07T03:36:18;99789.31;;;5.17;54.17
6506;BME280;3286;49.858;8.768;2024-03-07T03:38:45;99788.31;;;5.05;53.59
6506;BME280;3286;49.858;8.768;2024-03-07T03:41:15;99790.19;;;5.03;55.60
6506;BME280;3286;49.858;8.768;2024-03-07T03:43:41;99787.75;;;5.14;54.71
6506;BME280;3286;49.858;8.768;2024-03-07T03:46:09;99794.16;;;4.96;54.58
6506;BME280;3286;49.858;8.768;2024-03-07T03:48:38;99785.78;;;4.90;54.22
6506;BME280;3286;49.858;8.768;2024-03-07T03:51:06;99778.91;;;5.02;53.31
6506;BME280;3286;49.858;8.768;2024-03-07T03:53:33;99780.06;;;4.71;54.66
6506;BME280;3286;49.858;8.768;2024-03-07T03:56:00;99786.44;;;4.94;55.26
6506;BME280;3286;49.858;8.768;2024-03-07T03:58:26;99783.63;;;4.70;55.68
6506;BME280;3286;49.858;8.768;2024-03-07T04:00:53;99789.19;;;4.78;55.34
6506;BME280;3286;49.858;8.768;2024-03-07T04:03:19;99794.84;;;4.85;55.32
6506;BME280;3286;49.858;8.768;2024-03-07T04:05:47;99791.41;;;4.84;54.96
6506;BME280;3286;49.858;8.768;2024-03-07T04:08:14;99789.72;;;4.83;54.58
6506;BME280;3286;49.858;8.768;2024-03-07T04:10:41;99791.47;;;4.70;54.88
6506;BME280;3286;49.858;8.768;2024-03-07T04:13:07;99783.09;;;4.77;53.77
6506;BME280;3286;49.858;8.768;2024-03-07T04:15:34;99794.16;;;4.68;54.39
6506;BME280;3286;49.858;8.768;2024-03-07T04:18:00;99796.94;;;4.38;54.97
6506;BME280;3286;49.858;8.768;2024-03-07T04:20:27;99791.94;;;4.05;55.45
6506;BME280;3286;49.858;8.768;2024-03-07T04:22:55;99795.69;;;4.43;55.03
6506;BME280;3286;49.858;8.768;2024-03-07T04:25:22;99791.41;;;4.57;55.57
6506;BME280;3286;49.858;8.768;2024-03-07T04:27:57;99793.63;;;4.48;55.81
6506;BME280;3286;49.858;8.768;2024-03-07T04:30:24;99788.25;;;4.52;54.75
6506;BME280;3286;49.858;8.768;2024-03-07T04:32:51;99793.22;;;4.69;54.72
6506;BME280;3286;49.858;8.768;2024-03-07T04:35:18;99790.94;;;4.50;55.21
6506;BME280;3286;49.858;8.768;2024-03-07T04:37:45;99782.69;;;4.56;54.73
6506;BME280;3286;49.858;8.768;2024-03-07T04:40:13;99787.78;;;4.45;55.67
6506;BME280;3286;49.858;8.768;2024-03-07T04:42:42;99785.50;;;4.53;55.58
6506;BME280;3286;49.858;8.768;2024-03-07T04:45:09;99780.72;;;4.60;55.02
6506;BME280;3286;49.858;8.768;2024-03-07T04:47:38;99789.72;;;4.41;54.86
6506;BME280;3286;49.858;8.768;2024-03-07T04:50:05;99785.78;;;4.63;53.94
6506;BME280;3286;49.858;8.768;2024-03-07T04:52:32;99790.78;;;4.39;54.83
6506;BME280;3286;49.858;8.768;2024-03-07T04:54:59;99778.13;;;4.60;53.98
6506;BME280;3286;49.858;8.768;2024-03-07T04:57:27;99784.81;;;4.37;54.69
6506;BME280;3286;49.858;8.768;2024-03-07T04:59:54;99785.00;;;4.33;54.65
6506;BME280;3286;49.858;8.768;2024-03-07T05:02:22;99788.66;;;4.16;55.50
6506;BME280;3286;49.858;8.768;2024-03-07T05:04:48;99788.28;;;4.23;55.16
6506;BME280;3286;49.858;8.768;2024-03-07T05:07:17;99785.81;;;4.34;56.20
6506;BME280;3286;49.858;8.768;2024-03-07T05:09:44;99787.06;;;4.14;56.95
6506;BME280;3286;49.858;8.768;2024-03-07T05:12:11;99789.28;;;4.34;55.57
6506;BME280;3286;49.858;8.768;2024-03-07T05:14:40;99786.41;;;4.25;55.27
6506;BME280;3286;49.858;8.768;2024-03-07T05:17:06;99788.66;;;4.02;54.93
6506;BME280;3286;49.858;8.768;2024-03-07T05:19:34;99793.69;;;3.90;55.24
6506;BME280;3286;49.858;8.768;2024-03-07T05:22:01;99793.41;;;3.66;55.50
6506;BME280;3286;49.858;8.768;2024-03-07T05:24:30;99794.44;;;3.78;54.54
6506;BME280;3286;49.858;8.768;2024-03-07T05:26:58;99795.56;;;3.88;54.50
6506;BME280;3286;49.858;8.768;2024-03-07T05:29:25;99783.34;;;4.03;54.41
6506;BME280;3286;49.858;8.768;2024-03-07T05:31:53;99790.81;;;3.95;55.25
6506;BME280;3286;49.858;8.768;2024-03-07T05:34:20;99791.94;;;4.05;53.96
6506;BME280;3286;49.858;8.768;2024-03-07T05:36:48;99788.09;;;4.11;54.21
6506;BME280;3286;49.858;8.768;2024-03-07T05:39:16;99785.28;;;4.00;53.99
6506;BME280;3286;49.858;8.768;2024-03-07T05:41:45;99792.56;;;3.95;56.20
6506;BME280;3286;49.858;8.768;2024-03-07T05:44:12;99791.19;;;3.89;55.30
6506;BME280;3286;49.858;8.768;2024-03-07T05:46:39;99792.94;;;3.88;57.59
6506;BME280;3286;49.858;8.768;2024-03-07T05:49:13;99782.97;;;4.10;55.41
6506;BME280;3286;49.858;8.768;2024-03-07T05:51:40;99785.97;;;4.60;54.19
6506;BME280;3286;49.858;8.768;2024-03-07T05:54:10;99781.00;;;4.70;53.71
6506;BME280;3286;49.858;8.768;2024-03-07T05:56:39;99782.16;;;4.51;53.87
6506;BME280;3286;49.858;8.768;2024-03-07T05:59:07;99784.06;;;4.34;55.17
6506;BME280;3286;49.858;8.768;2024-03-07T06:01:35;99776.22;;;4.34;54.54
6506;BME280;3286;49.858;8.768;2024-03-07T06:04:02;99779.09;;;4.30;55.12
6506;BME280;3286;49.858;8.768;2024-03-07T06:06:33;99781.38;;;4.22;54.03
6506;BME280;3286;49.858;8.768;2024-03-07T06:09:01;99781.47;;;4.05;54.79
6506;BME280;3286;49.858;8.768;2024-03-07T06:11:28;99778.94;;;4.04;55.21
6506;BME280;3286;49.858;8.768;2024-03-07T06:13:55;99782.97;;;4.10;55.08
6506;BME280;3286;49.858;8.768;2024-03-07T06:16:26;99791.34;;;4.15;55.91
6506;BME280;3286;49.858;8.768;2024-03-07T06:18:53;99783.97;;;4.22;55.09
6506;BME280;3286;49.858;8.768;2024-03-07T06:21:19;99790.28;;;4.46;55.44
6506;BME280;3286;49.858;8.768;2024-03-07T06:23:47;99784.44;;;4.14;56.51
6506;BME280;3286;49.858;8.768;2024-03-07T06:26:20;99786.22;;;4.28;55.46
6506;BME280;3286;49.858;8.768;2024-03-07T06:29:02;99788.56;;;4.03;56.15
6506;BME280;3286;49.858;8.768;2024-03-07T06:31:39;99791.47;;;3.70;57.32
6506;BME280;3286;49.858;8.768;2024-03-07T06:34:06;99783.50;;;4.29;56.06
6506;BME280;3286;49.858;8.768;2024-03-07T06:36:33;99788.75;;;4.15;56.26
6506;BME280;3286;49.858;8.768;2024-03-07T06:39:01;99789.53;;;4.44;56.04
6506;BME280;3286;49.858;8.768;2024-03-07T06:41:30;99784.50;;;4.56;56.23
6506;BME280;3286;49.858;8.768;2024-03-07T06:43:57;99789.66;;;4.28;56.37
6506;BME280;3286;49.858;8.768;2024-03-07T06:46:23;99789.03;;;4.10;57.54
6506;BME280;3286;49.858;8.768;2024-03-07T06:48:50;99788.41;;;4.48;56.76
6506;BME280;3286;49.858;8.768;2024-03-07T06:51:18;99787.53;;;4.06;57.05
6506;BME280;3286;49.858;8.768;2024-03-07T06:53:45;99790.34;;;4.59;56.90
6506;BME280;3286;49.858;8.768;2024-03-07T06:56:14;99780.88;;;4.71;56.46
6506;BME280;3286;49.858;8.768;2024-03-07T06:58:42;99787.56;;;4.90;56.62
6506;BME280;3286;49.858;8.768;2024-03-07T07:01:10;99782.50;;;4.59;57.21
6506;BME280;3286;49.858;8.768;2024-03-07T07:03:40;99782.88;;;4.95;56.18
6506;BME280;3286;49.858;8.768;2024-03-07T07:06:09;99792.88;;;5.16;55.40
6506;BME280;3286;49.858;8.768;2024-03-07T07:08:36;99784.19;;;5.28;55.78
6506;BME280;3286;49.858;8.768;2024-03-07T07:11:02;99788.84;;;5.38;55.66
6506;BME280;3286;49.858;8.768;2024-03-07T07:13:31;99771.00;;;5.30;55.98
6506;BME280;3286;49.858;8.768;2024-03-07T07:15:58;99790.56;;;5.11;56.50
6506;BME280;3286;49.858;8.768;2024-03-07T07:18:24;99787.47;;;5.45;55.93
6506;BME280;3286;49.858;8.768;2024-03-07T07:20:51;99784.72;;;5.20;56.17
6506;BME280;3286;49.858;8.768;2024-03-07T07:23:20;99782.19;;;5.19;56.13
6506;BME280;3286;49.858;8.768;2024-03-07T07:25:46;99785.22;;;5.13;56.69
6506;BME280;3286;49.858;8.768;2024-03-07T07:28:13;99780.78;;;5.66;55.81
6506;BME280;3286;49.858;8.768;2024-03-07T07:30:42;99784.34;;;5.91;54.98
6506;BME280;3286;49.858;8.768;2024-03-07T07:33:08;99780.03;;;5.77;55.11
6506;BME280;3286;49.858;8.768;2024-03-07T07:35:35;99775.84;;;5.88;54.99
6506;BME280;3286;49.858;8.768;2024-03-07T07:38:01;99772.19;;;5.90;54.91
6506;BME280;3286;49.858;8.768;2024-03-07T07:40:28;99763.59;;;6.14;54.24
6506;BME280;3286;49.858;8.768;2024-03-07T07:42:56;99765.38;;;6.01;54.67
6506;BME280;3286;49.858;8.768;2024-03-07T07:45:23;99772.06;;;6.18;53.75
6506;BME280;3286;49.858;8.768;2024-03-07T07:47:52;99772.44;;;6.37;53.87
6506;BME280;3286;49.858;8.768;2024-03-07T07:50:21;99767.13;;;6.50;53.88
6506;BME280;3286;49.858;8.768;2024-03-07T07:52:50;99761.84;;;6.39;53.68
6506;BME280;3286;49.858;8.768;2024-03-07T07:55:19;99765.19;;;7.14;52.36
6506;BME280;3286;49.858;8.768;2024-03-07T07:57:48;99762.19;;;6.83;52.06
6506;BME280;3286;49.858;8.768;2024-03-07T08:00:16;99763.16;;;7.18;51.72
6506;BME280;3286;49.858;8.768;2024-03-07T08:02:53;99759.38;;;6.98;52.06
6506;BME280;3286;49.858;8.768;2024-03-07T08:05:21;99765.19;;;6.90;51.83
6506;BME280;3286;49.858;8.768;2024-03-07T08:07:49;99759.28;;;7.46;50.72
6506;BME280;3286;49.858;8.768;2024-03-07T08:10:17;99758.13;;;7.62;50.17
6506;BME280;3286;49.858;8.768;2024-03-07T08:12:43;99749.50;;;7.48;50.39
6506;BME280;3286;49.858;8.768;2024-03-07T08:15:11;99745.19;;;7.47;49.86
6506;BME280;3286;49.858;8.768;2024-03-07T08:17:40;99751.47;;;8.03;48.24
6506;BME280;3286;49.858;8.768;2024-03-07T08:20:10;99751.31;;;7.59;49.81
6506;BME280;3286;49.858;8.768;2024-03-07T08:22:37;99753.47;;;7.54;50.14
6506;BME280;3286;49.858;8.768;2024-03-07T08:25:06;99745.38;;;7.80;49.03
6506;BME280;3286;49.858;8.768;2024-03-07T08:27:35;99750.84;;;7.65;49.55
6506;BME280;3286;49.858;8.768;2024-03-07T08:30:02;99742.84;;;7.67;49.60
6506;BME280;3286;49.858;8.768;2024-03-07T08:32:28;99745.81;;;7.74;48.73
6506;BME280;3286;49.858;8.768;2024-03-07T08:34:55;99740.78;;;7.48;49.46
6506;BME280;3286;49.858;8.768;2024-03-07T08:37:24;99740.44;;;7.87;48.47
6506;BME280;3286;49.858;8.768;2024-03-07T08:39:50;99740.19;;;7.90;48.31
6506;BME280;3286;49.858;8.768;2024-03-07T08:42:17;99734.34;;;8.09;48.43
6506;BME280;3286;49.858;8.768;2024-03-07T08:44:44;99733.06;;;8.47;48.01
6506;BME280;3286;49.858;8.768;2024-03-07T08:47:11;99739.38;;;7.78;46.85
6506;BME280;3286;49.858;8.768;2024-03-07T08:49:38;99743.66;;;8.13;46.68
6506;BME280;3286;49.858;8.768;2024-03-07T08:52:05;99736.34;;;8.39;45.79
6506;BME280;3286;49.858;8.768;2024-03-07T08:54:34;99739.75;;;7.96;46.36
6506;BME280;3286;49.858;8.768;2024-03-07T08:57:00;99744.31;;;7.24;47.76
6506;BME280;3286;49.858;8.768;2024-03-07T08:59:27;99738.88;;;8.07;45.50
6506;BME280;3286;49.858;8.768;2024-03-07T09:01:54;99744.63;;;8.01;45.21
6506;BME280;3286;49.858;8.768;2024-03-07T09:04:20;99740.28;;;8.34;46.72
6506;BME280;3286;49.858;8.768;2024-03-07T09:06:47;99734.00;;;9.02;44.95
6506;BME280;3286;49.858;8.768;2024-03-07T09:09:14;99733.41;;;7.87;44.96
6506;BME280;3286;49.858;8.768;2024-03-07T09:11:44;99733.94;;;8.48;45.18
6506;BME280;3286;49.858;8.768;2024-03-07T09:14:11;99734.44;;;8.41;44.83
6506;BME280;3286;49.858;8.768;2024-03-07T09:16:37;99736.63;;;8.14;45.21
6506;BME280;3286;49.858;8.768;2024-03-07T09:19:05;99733.22;;;8.34;45.35
6506;BME280;3286;49.858;8.768;2024-03-07T09:21:31;99730.22;;;8.62;45.00
6506;BME280;3286;49.858;8.768;2024-03-07T09:23:58;99718.34;;;9.21;43.44
6506;BME280;3286;49.858;8.768;2024-03-07T09:26:26;99724.94;;;8.62;44.11
6506;BME280;3286;49.858;8.768;2024-03-07T09:28:53;99727.53;;;7.95;44.31
6506;BME280;3286;49.858;8.768;2024-03-07T09:31:21;99728.44;;;8.83;42.95
6506;BME280;3286;49.858;8.768;2024-03-07T09:33:47;99728.09;;;8.33;44.09
6506;BME280;3286;49.858;8.768;2024-03-07T09:36:15;99723.34;;;7.92;44.02
6506;BME280;3286;49.858;8.768;2024-03-07T09:38:44;99726.28;;;8.56;44.00
6506;BME280;3286;49.858;8.768;2024-03-07T09:41:11;99721.34;;;8.95;43.00
6506;BME280;3286;49.858;8.768;2024-03-07T09:43:37;99725.16;;;7.69;44.04
6506;BME280;3286;49.858;8.768;2024-03-07T09:46:06;99714.31;;;8.52;43.45
6506;BME280;3286;49.858;8.768;2024-03-07T09:48:33;99720.47;;;8.07;45.54
6506;BME280;3286;49.858;8.768;2024-03-07T09:51:02;99717.66;;;8.54;44.14
6506;BME280;3286;49.858;8.768;2024-03-07T09:53:31;99722.50;;;7.92;44.43
6506;BME280;3286;49.858;8.768;2024-03-07T09:55:58;99719.41;;;7.87;45.31
6506;BME280;3286;49.858;8.768;2024-03-07T09:58:25;99727.88;;;7.56;44.76
6506;BME280;3286;49.858;8.768;2024-03-07T10:00:56;99728.22;;;7.40;44.84
6506;BME280;3286;49.858;8.768;2024-03-07T10:03:29;99731.47;;;8.01;44.44
6506;BME280;3286;49.858;8.768;2024-03-07T10:05:56;99727.97;;;8.78;43.96
6506;BME280;3286;49.858;8.768;2024-03-07T10:08:23;99728.78;;;9.54;41.58
6506;BME280;3286;49.858;8.768;2024-03-07T10:10:50;99731.06;;;8.39;43.64
6506;BME280;3286;49.858;8.768;2024-03-07T10:13:18;99726.56;;;8.74;43.99
6506;BME280;3286;49.858;8.768;2024-03-07T10:15:46;99728.97;;;7.99;45.28
6506;BME280;3286;49.858;8.768;2024-03-07T10:18:14;99719.22;;;8.34;44.08
6506;BME280;3286;49.858;8.768;2024-03-07T10:20:45;99717.78;;;8.85;43.82
6506;BME280;3286;49.858;8.768;2024-03-07T10:23:18;99713.41;;;8.07;44.90
6506;BME280;3286;49.858;8.768;2024-03-07T10:25:46;99706.50;;;8.62;43.58
6506;BME280;3286;49.858;8.768;2024-03-07T10:28:13;99706.16;;;8.88;43.66
6506;BME280;3286;49.858;8.768;2024-03-07T10:30:40;99700.69;;;9.22;43.04
6506;BME280;3286;49.858;8.768;2024-03-07T10:33:06;99688.38;;;9.22;43.63
6506;BME280;3286;49.858;8.768;2024-03-07T10:35:33;99692.25;;;9.49;43.05
6506;BME280;3286;49.858;8.768;2024-03-07T10:38:02;99691.00;;;9.22;42.74
6506;BME280;3286;49.858;8.768;2024-03-07T10:40:33;99684.81;;;9.33;43.43
6506;BME280;3286;49.858;8.768;2024-03-07T10:43:01;99686.63;;;9.64;41.97
6506;BME280;3286;49.858;8.768;2024-03-07T10:45:29;99688.38;;;9.53;41.95
6506;BME280;3286;49.858;8.768;2024-03-07T10:47:57;99681.66;;;9.70;43.37
6506;BME280;3286;49.858;8.768;2024-03-07T10:50:41;99690.16;;;9.22;42.85
6506;BME280;3286;49.858;8.768;2024-03-07T10:53:19;99675.50;;;9.60;43.98
6506;BME280;3286;49.858;8.768;2024-03-07T10:55:56;99674.97;;;10.07;42.51
6506;BME280;3286;49.858;8.768;2024-03-07T10:58:32;99666.44;;;9.22;43.40
6506;BME280;3286;49.858;8.768;2024-03-07T11:01:04;99671.69;;;9.74;43.15
6506;BME280;3286;49.858;8.768;2024-03-07T11:03:32;99673.03;;;8.95;45.34
6506;BME280;3286;49.858;8.768;2024-03-07T11:06:01;99664.84;;;9.62;43.67
6506;BME280;3286;49.858;8.768;2024-03-07T11:08:33;99654.69;;;10.08;42.49
6506;BME280;3286;49.858;8.768;2024-03-07T11:11:00;99657.81;;;9.20;44.36
6506;BME280;3286;49.858;8.768;2024-03-07T11:13:27;99657.97;;;9.49;43.79
6506;BME280;3286;49.858;8.768;2024-03-07T11:15:56;99659.75;;;8.75;44.51
6506;BME280;3286;49.858;8.768;2024-03-07T11:18:25;99661.34;;;9.30;43.89
6506;BME280;3286;49.858;8.768;2024-03-07T11:20:52;99662.19;;;8.67;44.87
6506;BME280;3286;49.858;8.768;2024-03-07T11:23:26;99653.25;;;9.01;45.23
6506;BME280;3286;49.858;8.768;2024-03-07T11:26:01;99644.69;;;9.30;43.96
6506;BME280;3286;49.858;8.768;2024-03-07T11:28:33;99650.13;;;8.86;45.53
6506;BME280;3286;49.858;8.768;2024-03-07T11:31:09;99646.03;;;8.60;45.80
6506;BME280;3286;49.858;8.768;2024-03-07T11:33:39;99641.03;;;9.21;46.09
6506;BME280;3286;49.858;8.768;2024-03-07T11:36:07;99637.06;;;9.36;45.10
6506;BME280;3286;49.858;8.768;2024-03-07T11:38:34;99626.31;;;9.49;44.62
6506;BME280;3286;49.858;8.768;2024-03-07T11:41:04;99626.97;;;9.10;44.46
6506;BME280;3286;49.858;8.768;2024-03-07T11:43:33;99622.38;;;9.75;44.71
6506;BME280;3286;49.858;8.768;2024-03-07T11:46:00;99613.72;;;10.33;43.67
6506;BME280;3286;49.858;8.768;2024-03-07T11:48:27;99602.00;;;10.95;42.02
6506;BME280;3286;49.858;8.768;2024-03-07T11:50:56;99605.38;;;10.38;42.11
6506;BME280;3286;49.858;8.768;2024-03-07T11:53:22;99589.53;;;10.38;42.18
6506;BME280;3286;49.858;8.768;2024-03-07T11:55:49;99600.34;;;10.15;42.56
6506;BME280;3286;49.858;8.768;2024-03-07T11:58:18;99597.31;;;10.29;42.90
6506;BME280;3286;49.858;8.768;2024-03-07T12:00:47;99597.16;;;10.02;44.18
6506;BME280;3286;49.858;8.768;2024-03-07T12:03:14;99591.19;;;10.29;43.97
6506;BME280;3286;49.858;8.768;2024-03-07T12:05:42;99594.53;;;10.70;42.40
6506;BME280;3286;49.858;8.768;2024-03-07T12:08:10;99575.75;;;10.83;42.93
6506;BME280;3286;49.858;8.768;2024-03-07T12:10:37;99572.56;;;10.70;41.73
6506;BME280;3286;49.858;8.768;2024-03-07T12:13:05;99572.31;;;10.63;42.00
6506;BME280;3286;49.858;8.768;2024-03-07T12:15:35;99575.78;;;10.54;43.57
6506;BME280;3286;49.858;8.768;2024-03-07T12:18:04;99572.16;;;10.35;43.58
6506;BME280;3286;49.858;8.768;2024-03-07T12:20:36;99565.75;;;10.38;44.57
6506;BME280;3286;49.858;8.768;2024-03-07T12:23:04;99571.84;;;9.99;43.32
6506;BME280;3286;49.858;8.768;2024-03-07T12:25:33;99567.19;;;10.42;42.68
6506;BME280;3286;49.858;8.768;2024-03-07T12:28:05;99569.19;;;9.60;44.93
6506;BME280;3286;49.858;8.768;2024-03-07T12:30:47;99560.47;;;9.89;43.84
6506;BME280;3286;49.858;8.768;2024-03-07T12:33:16;99559.94;;;10.44;43.16
6506;BME280;3286;49.858;8.768;2024-03-07T12:35:44;99551.59;;;10.19;43.52
6506;BME280;3286;49.858;8.768;2024-03-07T12:38:11;99545.91;;;10.24;44.31
6506;BME280;3286;49.858;8.768;2024-03-07T12:40:40;99550.75;;;9.99;44.07
6506;BME280;3286;49.858;8.768;2024-03-07T12:43:15;99548.75;;;9.71;43.28
6506;BME280;3286;49.858;8.768;2024-03-07T12:45:47;99545.75;;;9.96;42.58
6506;BME280;3286;49.858;8.768;2024-03-07T12:48:14;99543.81;;;10.08;41.95
6506;BME280;3286;49.858;8.768;2024-03-07T12:50:41;99542.97;;;10.17;42.27
6506;BME280;3286;49.858;8.768;2024-03-07T12:53:08;99539.19;;;9.61;42.18
6506;BME280;3286;49.858;8.768;2024-03-07T12:55:38;99538.38;;;10.58;41.96
6506;BME280;3286;49.858;8.768;2024-03-07T12:58:07;99539.09;;;9.82;42.62
6506;BME280;3286;49.858;8.768;2024-03-07T13:00:35;99530.75;;;10.26;42.83
6506;BME280;3286;49.858;8.768;2024-03-07T13:03:04;99532.13;;;9.81;42.09
6506;BME280;3286;49.858;8.768;2024-03-07T13:05:31;99531.53;;;9.67;43.34
6506;BME280;3286;49.858;8.768;2024-03-07T13:07:58;99525.91;;;10.21;42.66
6506;BME280;3286;49.858;8.768;2024-03-07T13:10:24;99532.06;;;9.41;43.58
6506;BME280;3286;49.858;8.768;2024-03-07T13:12:51;99526.00;;;9.80;43.11
6506;BME280;3286;49.858;8.768;2024-03-07T13:15:18;99523.78;;;10.54;41.50
6506;BME280;3286;49.858;8.768;2024-03-07T13:17:47;99532.84;;;9.32;44.08
6506;BME280;3286;49.858;8.768;2024-03-07T13:20:16;99524.63;;;9.96;42.60
6506;BME280;3286;49.858;8.768;2024-03-07T13:22:47;99527.56;;;9.32;43.78
6506;BME280;3286;49.858;8.768;2024-03-07T13:25:16;99529.34;;;9.82;42.39
6506;BME280;3286;49.858;8.768;2024-03-07T13:27:52;99525.75;;;10.33;42.05
6506;BME280;3286;49.858;8.768;2024-03-07T13:30:21;99523.50;;;10.28;42.63
6506;BME280;3286;49.858;8.768;2024-03-07T13:32:53;99517.94;;;10.61;42.36
6506;BME280;3286;49.858;8.768;2024-03-07T13:35:21;99517.69;;;10.24;42.86